This is the latest recevied weather packets stored in our database for station/object VE6KEE-13. If no packets are shown the sender has not sent any weather packets the latest 10 day(s).
| Time | Temp. | Humidity | Pressure | Rain* | Wind** | Luminosity | Snow |
|---|---|---|---|---|---|---|---|
| 1777999849 | 15° C | 25% | 1022.7 hPa | 0 mm | - | - | - |
| 1777998944 | 14.44° C | 26% | 1022.7 hPa | 0 mm | - | - | - |
| 1777998044 | 13.89° C | 27% | 1022.9 hPa | 0 mm | - | - | - |
| 1777997149 | 13.33° C | 29% | 1022.9 hPa | 0 mm | - | - | - |
| 1777996242 | 12.22° C | 32% | 1022.9 hPa | 0 mm | - | - | - |
| 1777995341 | 10° C | 36% | 1023.1 hPa | 0 mm | - | - | - |
| 1777994441 | 7.22° C | 40% | 1023.3 hPa | 0 mm | - | - | - |
| 1777993540 | 6.11° C | 41% | 1023.4 hPa | 0 mm | - | - | - |
| 1777992639 | 5.56° C | 43% | 1023.4 hPa | 0 mm | - | - | - |
| 1777991743 | 5° C | 43% | 1023.4 hPa | 0 mm | - | - | - |
| 1777990837 | 4.44° C | 44% | 1023.4 hPa | 0 mm | - | - | - |
| 1777989937 | 4.44° C | 45% | 1023.4 hPa | 0 mm | - | - | - |
| 1777989036 | 3.89° C | 46% | 1023.2 hPa | 0 mm | - | - | - |
| 1777988135 | 3.33° C | 47% | 1023.1 hPa | 0 mm | - | - | - |
| 1777987235 | 2.78° C | 47% | 1023 hPa | 0 mm | - | - | - |
| 1777986347 | 2.78° C | 47% | 1022.9 hPa | 0 mm | - | - | - |
| 1777985433 | 2.22° C | 47% | 1022.7 hPa | 0 mm | - | - | - |
| 1777984532 | 2.22° C | 47% | 1022.8 hPa | 0 mm | - | - | - |
| 1777983631 | 2.22° C | 47% | 1022.6 hPa | 0 mm | - | - | - |
| 1777982731 | 2.78° C | 46% | 1022.7 hPa | 0 mm | - | - | - |
| 1777981831 | 2.78° C | 46% | 1022.7 hPa | 0 mm | - | - | - |
| 1777980945 | 2.78° C | 46% | 1022.5 hPa | 0 mm | - | - | - |
| 1777980028 | 2.78° C | 45% | 1022.6 hPa | 0 mm | - | - | - |
| 1777979130 | 2.78° C | 45% | 1022.6 hPa | 0 mm | - | - | - |
| 1777978227 | 2.78° C | 45% | 1022.6 hPa | 0 mm | - | - | - |
* Rain since midnight (hover to see other rain measurements)
** Current wind speed in m/s (hover to see current wind gust speed)